createdAt,value
2022-12-25T00:02:06.258Z,16.17
2022-12-25T00:07:00.535Z,15.65
2022-12-25T00:11:53.938Z,14.68
2022-12-25T00:16:47.627Z,14.90
2022-12-25T00:21:40.847Z,16.75
2022-12-25T00:26:34.250Z,16.58
2022-12-25T00:31:28.443Z,15.98
2022-12-25T00:36:23.086Z,16.25
2022-12-25T00:41:43.137Z,15.63
2022-12-25T00:46:37.993Z,15.70
2022-12-25T00:51:31.754Z,16.65
2022-12-25T00:56:24.717Z,15.38
2022-12-25T01:01:18.735Z,16.05
2022-12-25T01:06:13.790Z,17.27
2022-12-25T01:11:09.429Z,16.35
2022-12-25T01:16:12.419Z,17.40
2022-12-25T01:21:11.864Z,16.45
2022-12-25T01:26:10.174Z,16.92
2022-12-25T01:31:04.596Z,16.33
2022-12-25T01:35:59.056Z,16.35
2022-12-25T01:40:51.696Z,16.05
2022-12-25T01:45:47.693Z,16.27
2022-12-25T01:50:43.672Z,17.08
2022-12-25T01:55:38.417Z,16.88
2022-12-25T02:00:32.396Z,15.88
2022-12-25T02:05:32.580Z,16.77
2022-12-25T02:10:25.934Z,16.48
2022-12-25T02:15:23.094Z,15.63
2022-12-25T02:20:40.503Z,16.38
2022-12-25T02:25:33.590Z,15.43
2022-12-25T02:30:27.457Z,16.50
2022-12-25T02:35:31.645Z,16.17
2022-12-25T02:40:47.113Z,15.18
2022-12-25T02:46:12.081Z,17.35
2022-12-25T02:51:28.309Z,15.77
2022-12-25T02:56:41.221Z,16.75
2022-12-25T03:01:55.263Z,17.05
2022-12-25T03:07:11.652Z,16.73
2022-12-25T03:12:17.013Z,15.98
2022-12-25T03:17:10.686Z,16.55
2022-12-25T03:22:24.265Z,15.88
2022-12-25T03:27:17.732Z,17.35
2022-12-25T03:32:17.932Z,17.80
2022-12-25T03:37:29.686Z,16.10
2022-12-25T03:42:35.749Z,16.90
2022-12-25T03:47:52.137Z,17.42
2022-12-25T03:53:06.402Z,16.38
2022-12-25T03:58:18.360Z,17.13
2022-12-25T04:03:30.133Z,17.05
2022-12-25T04:08:41.913Z,16.88
2022-12-25T04:13:53.285Z,16.90
2022-12-25T04:19:05.669Z,18.17
2022-12-25T04:24:17.675Z,17.05
2022-12-25T04:29:29.575Z,17.45
2022-12-25T04:34:41.519Z,16.88
2022-12-25T04:39:35.214Z,17.50
2022-12-25T04:44:28.266Z,18.20
2022-12-25T04:49:22.637Z,18.05
2022-12-25T04:54:16.582Z,17.33
2022-12-25T04:59:09.642Z,18.42
2022-12-25T05:04:03.276Z,17.92
2022-12-25T05:08:56.776Z,17.25
2022-12-25T05:13:49.797Z,17.40
2022-12-25T05:18:43.111Z,18.05
2022-12-25T05:23:37.549Z,19.13
2022-12-25T05:28:31.848Z,18.80
2022-12-25T05:33:25.610Z,20.00
2022-12-25T05:38:19.282Z,20.40
2022-12-25T05:43:12.585Z,19.35
2022-12-25T05:48:07.084Z,19.20
2022-12-25T05:53:06.095Z,18.65
2022-12-25T05:58:02.006Z,19.70
2022-12-25T06:02:55.927Z,19.08
2022-12-25T06:07:49.865Z,17.92
2022-12-25T06:12:43.436Z,18.27
2022-12-25T06:17:37.079Z,18.27
2022-12-25T06:22:34.312Z,17.65
2022-12-25T06:27:28.873Z,17.67
2022-12-25T06:32:22.701Z,16.75
2022-12-25T06:37:16.524Z,16.63
2022-12-25T06:42:10.664Z,17.60
2022-12-25T06:47:04.030Z,16.30
2022-12-25T06:51:58.323Z,16.55
2022-12-25T06:56:52.197Z,17.30
2022-12-25T07:01:54.890Z,20.23
2022-12-25T07:06:48.114Z,23.50
2022-12-25T07:11:41.571Z,24.75
2022-12-25T07:16:34.980Z,26.70
2022-12-25T07:21:28.739Z,27.52
2022-12-25T07:26:22.073Z,28.63
2022-12-25T07:31:17.867Z,29.73
2022-12-25T07:36:13.047Z,31.10
2022-12-25T07:41:09.440Z,32.80
2022-12-25T07:46:03.065Z,37.00
2022-12-25T07:51:00.494Z,38.97
2022-12-25T07:56:07.815Z,41.40
2022-12-25T08:01:13.645Z,41.65
2022-12-25T08:06:09.334Z,45.00
2022-12-25T08:11:03.716Z,46.70
2022-12-25T08:16:02.454Z,44.97
2022-12-25T08:20:56.345Z,42.92
2022-12-25T08:25:49.803Z,43.25
2022-12-25T08:30:43.771Z,41.53
2022-12-25T08:35:37.223Z,41.83
2022-12-25T08:40:30.190Z,39.95
2022-12-25T08:45:22.910Z,38.72
2022-12-25T08:50:17.009Z,38.10
2022-12-25T08:55:11.276Z,36.75
2022-12-25T09:00:05.726Z,35.63
2022-12-25T09:04:59.059Z,36.97
2022-12-25T09:09:52.291Z,34.03
2022-12-25T09:14:45.751Z,34.75
2022-12-25T09:19:38.782Z,34.65
2022-12-25T09:24:32.462Z,34.38
2022-12-25T09:29:25.647Z,31.65
2022-12-25T09:34:19.298Z,33.03
2022-12-25T09:39:13.161Z,32.33
2022-12-25T09:44:19.525Z,29.80
2022-12-25T09:49:40.112Z,28.80
2022-12-25T09:54:47.402Z,26.63
2022-12-25T09:59:43.141Z,25.60
2022-12-25T10:05:21.630Z,25.10
2022-12-25T10:10:35.785Z,23.58
2022-12-25T10:15:35.794Z,22.77
2022-12-25T10:20:46.955Z,22.13
2022-12-25T10:25:41.205Z,22.65
2022-12-25T10:30:35.756Z,17.08
2022-12-25T10:35:31.292Z,12.57
2022-12-25T10:40:23.792Z,10.32
2022-12-25T10:45:17.926Z,8.77
2022-12-25T10:50:19.058Z,8.00
2022-12-25T10:55:14.037Z,8.25
2022-12-25T11:00:24.664Z,7.63
2022-12-25T11:05:36.203Z,11.38
2022-12-25T11:10:39.728Z,13.85
2022-12-25T11:15:42.311Z,16.63
2022-12-25T11:20:40.027Z,16.00
2022-12-25T11:25:35.970Z,13.93
2022-12-25T11:30:34.704Z,14.82
2022-12-25T11:35:32.258Z,14.80
2022-12-25T11:40:29.680Z,14.20
2022-12-25T11:45:36.678Z,10.52
2022-12-25T11:50:35.158Z,11.05
2022-12-25T11:55:33.675Z,9.02
2022-12-25T12:00:29.980Z,8.20
2022-12-25T12:05:37.242Z,7.38
2022-12-25T12:10:48.253Z,6.20
2022-12-25T12:20:36.499Z,5.55
2022-12-25T12:25:31.019Z,5.00
2022-12-25T12:30:31.383Z,4.60
2022-12-25T12:35:31.158Z,5.07
2022-12-25T12:40:34.479Z,3.80
2022-12-25T12:45:54.077Z,3.13
2022-12-25T12:50:48.555Z,3.60
2022-12-25T12:55:42.482Z,3.30
2022-12-25T13:01:13.539Z,3.42
2022-12-25T13:06:17.901Z,2.97
2022-12-25T13:11:21.818Z,2.42
2022-12-25T13:16:25.181Z,2.72
2022-12-25T13:21:23.276Z,2.42
2022-12-25T13:26:17.414Z,1.70
2022-12-25T13:31:32.309Z,2.33
2022-12-25T13:36:27.562Z,1.73
2022-12-25T13:41:41.221Z,1.90
2022-12-25T13:46:35.088Z,1.92
2022-12-25T13:51:28.697Z,1.70
2022-12-25T13:56:22.952Z,1.63
2022-12-25T14:01:17.189Z,1.52
2022-12-25T14:06:24.175Z,1.60
2022-12-25T14:11:21.043Z,1.58
2022-12-25T14:16:18.023Z,1.45
2022-12-25T14:21:23.940Z,1.40
2022-12-25T14:26:32.395Z,1.00
2022-12-25T14:31:25.481Z,1.40
2022-12-25T14:36:19.480Z,1.42
2022-12-25T14:41:42.534Z,1.25
2022-12-25T14:46:35.784Z,1.33
2022-12-25T14:51:30.570Z,1.00
2022-12-25T14:56:25.181Z,1.13
2022-12-25T15:01:42.211Z,0.98
2022-12-25T15:06:36.124Z,1.00
2022-12-25T15:11:30.991Z,0.80
2022-12-25T15:16:27.008Z,0.90
2022-12-25T15:21:26.594Z,1.10
2022-12-25T15:26:20.021Z,1.08
2022-12-25T15:31:27.900Z,0.80
2022-12-25T15:36:21.420Z,1.00
2022-12-25T15:41:37.513Z,0.98
2022-12-25T15:46:31.154Z,0.80
2022-12-25T15:51:23.790Z,0.75
2022-12-25T15:56:16.875Z,0.82
2022-12-25T16:01:18.075Z,1.00
2022-12-25T16:11:06.470Z,1.00
2022-12-25T16:16:00.556Z,0.90
2022-12-25T16:20:55.051Z,1.00
2022-12-25T16:25:48.606Z,0.85
2022-12-25T16:30:42.749Z,0.98
2022-12-25T16:35:35.481Z,0.98
2022-12-25T16:40:29.476Z,0.95
2022-12-25T16:45:23.341Z,1.02
2022-12-25T16:50:17.426Z,0.80
2022-12-25T16:55:10.332Z,1.35
2022-12-25T17:00:03.653Z,0.90
2022-12-25T17:04:57.428Z,0.93
2022-12-25T17:09:51.100Z,1.08
2022-12-25T17:14:44.604Z,1.00
2022-12-25T17:19:39.954Z,1.10
2022-12-25T17:24:35.771Z,1.23
2022-12-25T17:29:30.790Z,0.95
2022-12-25T17:34:24.170Z,1.35
2022-12-25T17:39:17.948Z,1.00
2022-12-25T17:44:11.534Z,0.98
2022-12-25T17:49:06.484Z,0.90
2022-12-25T17:54:03.305Z,1.10
2022-12-25T17:58:59.233Z,0.90
2022-12-25T18:03:52.258Z,0.85
2022-12-25T18:08:46.237Z,1.13
2022-12-25T18:13:41.064Z,1.05
2022-12-25T18:18:36.242Z,0.93
2022-12-25T18:23:29.203Z,0.68
2022-12-25T18:28:22.359Z,1.10
2022-12-25T18:33:16.489Z,1.20
2022-12-25T18:38:10.258Z,0.88
2022-12-25T18:43:03.883Z,0.82
2022-12-25T18:47:57.390Z,0.68
2022-12-25T18:52:52.431Z,1.00
2022-12-25T18:57:45.884Z,0.90
2022-12-25T19:02:39.674Z,0.80
2022-12-25T19:07:33.873Z,0.90
2022-12-25T19:12:27.538Z,1.00
2022-12-25T19:17:20.613Z,0.90
2022-12-25T19:22:14.477Z,0.90
2022-12-25T19:27:08.232Z,0.70
2022-12-25T19:32:02.000Z,0.75
2022-12-25T19:36:56.822Z,0.68
2022-12-25T19:41:50.379Z,1.00
2022-12-25T19:46:43.279Z,1.67
2022-12-25T19:51:40.100Z,1.10
2022-12-25T19:56:34.091Z,0.95
2022-12-25T20:01:29.785Z,1.40
2022-12-25T20:06:26.807Z,1.85
2022-12-25T20:11:20.188Z,2.05
2022-12-25T20:16:13.820Z,2.10
2022-12-25T20:21:11.317Z,1.83
2022-12-25T20:26:06.069Z,2.63
2022-12-25T20:31:00.115Z,2.80
2022-12-25T20:35:55.398Z,3.50
2022-12-25T20:41:25.269Z,3.33
2022-12-25T20:46:02.661Z,3.13
2022-12-25T20:51:12.281Z,3.20
2022-12-25T20:56:07.727Z,3.50
2022-12-25T21:01:05.068Z,3.63
2022-12-25T21:05:58.427Z,3.63
2022-12-25T21:10:53.457Z,4.18
2022-12-25T21:15:50.666Z,4.13
2022-12-25T21:20:50.953Z,4.88
2022-12-25T21:25:46.891Z,4.15
2022-12-25T21:30:40.289Z,4.60
2022-12-25T21:35:37.858Z,5.18
2022-12-25T21:40:31.784Z,5.18
2022-12-25T21:45:25.832Z,5.13
2022-12-25T21:50:39.420Z,5.53
2022-12-25T21:55:35.409Z,5.22
2022-12-25T22:00:29.249Z,5.65
2022-12-25T22:05:40.212Z,5.85
2022-12-25T22:10:36.537Z,7.00
2022-12-25T22:15:47.991Z,5.47
2022-12-25T22:20:42.488Z,5.68
2022-12-25T22:25:36.285Z,5.75
2022-12-25T22:30:29.590Z,6.00
2022-12-25T22:35:23.532Z,5.38
2022-12-25T22:40:18.314Z,5.40
2022-12-25T22:45:13.735Z,5.82
2022-12-25T22:50:08.593Z,6.40
2022-12-25T22:55:03.063Z,5.72
2022-12-25T22:59:56.420Z,5.70
2022-12-25T23:04:51.058Z,5.75
2022-12-25T23:09:44.954Z,5.15
2022-12-25T23:14:42.112Z,5.90
2022-12-25T23:19:53.655Z,5.85
2022-12-25T23:25:05.965Z,5.93
2022-12-25T23:30:00.239Z,6.00
2022-12-25T23:34:54.643Z,5.70
2022-12-25T23:39:48.252Z,5.60
2022-12-25T23:44:40.490Z,5.03
2022-12-25T23:49:34.295Z,5.78
2022-12-25T23:54:29.570Z,5.13
2022-12-25T23:59:23.905Z,6.22
